createdAt,value
2018-08-04T04:17:23.185Z,16.60
2018-08-04T04:37:26.957Z,19.13
2018-08-04T04:57:43.677Z,18.17
2018-08-04T05:17:55.199Z,18.80
2018-08-04T05:38:10.091Z,18.90
2018-08-04T05:58:24.714Z,18.80
2018-08-04T06:18:45.656Z,19.60
2018-08-04T06:38:56.407Z,21.27
2018-08-04T07:19:38.344Z,19.20
2018-08-04T08:20:53.835Z,15.37
2018-08-04T09:22:00.590Z,15.57
2018-08-04T09:42:09.591Z,15.60
2018-08-04T10:02:27.331Z,14.67
2018-08-04T10:22:43.004Z,12.63
2018-08-04T10:42:45.560Z,12.70
2018-08-04T11:02:53.726Z,12.27
2018-08-04T11:22:57.681Z,12.97
2018-08-04T11:43:00.279Z,13.60
2018-08-04T12:03:02.917Z,12.50
2018-08-04T12:23:05.512Z,11.20
2018-08-04T12:43:09.156Z,13.07
2018-08-04T13:03:11.737Z,11.20
2018-08-04T13:23:26.881Z,11.93
2018-08-04T13:43:33.036Z,15.90
2018-08-04T14:03:45.796Z,8.57
2018-08-04T14:23:48.395Z,9.00
2018-08-04T14:44:05.667Z,10.67
2018-08-04T15:04:16.007Z,9.73
2018-08-04T15:24:24.355Z,13.50
2018-08-04T15:44:30.807Z,11.00
2018-08-04T16:04:39.498Z,9.50
2018-08-04T16:24:42.193Z,10.53
2018-08-04T16:44:51.075Z,11.10
2018-08-04T17:05:01.499Z,9.93
2018-08-04T17:25:04.171Z,9.90
2018-08-04T17:45:18.492Z,11.17
2018-08-04T18:26:07.089Z,10.43
2018-08-04T18:46:09.734Z,10.50
2018-08-04T18:58:00.527Z,10.60
2018-08-04T19:08:03.208Z,11.67
2018-08-04T19:18:06.580Z,11.07
2018-08-04T19:28:12.623Z,12.70
2018-08-04T19:38:19.952Z,12.80
2018-08-04T19:48:22.672Z,13.67
2018-08-04T19:58:32.015Z,14.87
2018-08-04T20:29:29.604Z,12.90
2018-08-04T20:39:32.185Z,13.30
2018-08-04T20:49:34.819Z,13.23
2018-08-04T20:59:37.380Z,13.27
2018-08-04T21:09:40.006Z,13.10
2018-08-04T21:19:43.098Z,13.47
2018-08-04T21:29:45.716Z,13.23
2018-08-04T21:39:58.303Z,15.10
2018-08-04T21:50:15.589Z,15.13
2018-08-04T22:00:18.159Z,14.27
2018-08-04T22:10:33.137Z,13.97
2018-08-04T22:20:35.625Z,12.63
2018-08-04T22:30:40.519Z,13.23
2018-08-04T22:40:43.118Z,13.03
2018-08-04T23:01:29.319Z,12.70
2018-08-04T23:11:41.530Z,14.53
2018-08-04T23:21:45.387Z,13.60
2018-08-04T23:31:49.119Z,14.30
2018-08-04T23:41:51.804Z,14.20
2018-08-04T23:51:54.509Z,14.00
